TAF LEIB
LEIB 280200Z 2803/2903 34009KT 9999 FEW040 TX15/2812Z TN08/2806Z BECMG 2808/2810 29019KT TEMPO 2810/2813 30020G30KT=
METAR LEIB
LEIB 280800Z 32011G22KT 260V070 9999 FEW040 12/M00 Q1008 NOSIG=
LEIB 280730Z 31009KT 250V030 9999 FEW040 11/M01 Q1008 NOSIG=
LEIB 280700Z 31009KT 270V350 9999 FEW040 11/00 Q1008 NOSIG=
LEIB 280630Z 31009KT 270V350 9999 FEW048 11/00 Q1008 NOSIG=
LEIB 280600Z 32006KT 270V360 9999 FEW048 11/01 Q1007 NOSIG=
WC LEIB
WS LEIB
WV LEIB